Time;durP1;ratioP1;P1;durP2;ratioP2;P2;SDS_P1;SDS_P2;PMS_P1;PMS_P2;Temp;Humidity;BMP_temperature;BMP_pressure;BME280_temperature;BME280_humidity;BME280_pressure;Samples;Min_cycle;Max_cycle;Signal;HPM_P1;HPM_P2
2022/06/05 00:01:04;;;;;;;9.68;5.22;;;;;;;14.72;77.02;101894.41;5101533;28;20059;-75
2022/06/05 00:03:37;;;;;;;9.98;5.68;;;;;;;14.74;77.33;101902.25;5101393;28;20361;-75
2022/06/05 00:06:19;;;;;;;7.57;5.03;;;;;;;14.71;77.24;101894.47;5101603;28;20419;-77
2022/06/05 00:08:57;;;;;;;9.38;5.47;;;;;;;14.67;77.47;101893.75;5101851;28;20036;-77
2022/06/05 00:11:23;;;;;;;7.85;5.22;;;;;;;14.67;77.16;101893.75;5083156;28;20119;-77
2022/06/05 00:13:52;;;;;;;11.23;5.68;;;;;;;14.67;77.14;101895.53;5101437;28;20028;-77
2022/06/05 00:16:19;;;;;;;;;;;;;;;14.67;77.30;101895.53;5093333;28;20036;-77
2022/06/05 00:18:45;;;;;;;9.60;5.88;;;;;;;14.63;77.08;101892.16;5101458;28;19920;-77
2022/06/05 00:21:11;;;;;;;8.77;5.70;;;;;;;14.63;77.12;101893.94;5101074;28;20276;-77
2022/06/05 00:23:37;;;;;;;8.07;5.72;;;;;;;14.61;77.60;101890.47;5101634;28;20043;-77
2022/06/05 00:26:20;;;;;;;10.73;5.80;;;;;;;14.64;77.49;101893.00;5100724;28;20032;-77
2022/06/05 00:28:59;;;;;;;8.50;5.25;;;;;;;14.57;77.32;101885.38;5101964;28;20031;-78
2022/06/05 00:32:09;;;;;;;8.48;5.70;;;;;;;14.57;77.44;101876.53;5082814;28;20248;-77
2022/06/05 00:34:35;;;;;;;7.90;5.55;;;;;;;14.57;77.35;101876.53;5101556;28;20093;-77
2022/06/05 00:37:07;;;;;;;9.02;6.05;;;;;;;14.53;77.37;101865.25;5082759;28;20040;-77
2022/06/05 00:39:57;;;;;;;10.50;6.25;;;;;;;14.50;77.51;101868.03;5101182;28;20063;-77
2022/06/05 00:42:26;;;;;;;9.57;5.55;;;;;;;14.47;77.68;101860.25;5100887;28;20047;-77
2022/06/05 00:44:54;;;;;;;6.32;5.60;;;;;;;14.47;77.59;101854.97;5101042;28;20112;-77
2022/06/05 00:47:24;;;;;;;9.60;5.88;;;;;;;14.46;77.43;101855.91;5100729;28;20145;-77
2022/06/05 00:49:56;;;;;;;10.02;5.82;;;;;;;14.47;77.81;101856.78;5100945;28;20039;-77
2022/06/05 00:52:23;;;;;;;9.70;6.13;;;;;;;14.46;77.69;101863.81;5100480;28;20073;-77
2022/06/05 00:54:49;;;;;;;7.88;5.63;;;;;;;14.41;77.70;101849.97;5101245;28;20340;-77
2022/06/05 00:57:16;;;;;;;8.63;5.72;;;;;;;14.38;77.71;101855.34;5082520;28;20062;-77
2022/06/05 00:59:43;;;;;;;6.63;5.97;;;;;;;14.36;77.98;101862.47;5082942;28;20225;-77
2022/06/05 01:05:00;;;;;;;6.05;5.53;;;;;;;14.35;77.95;101847.56;5072443;27;20115;-78
2022/06/05 01:07:25;;;;;;;8.02;6.10;;;;;;;14.37;78.04;101856.25;5079808;28;20028;-77
2022/06/05 01:09:52;;;;;;;10.10;5.57;;;;;;;14.35;77.99;101859.00;5079198;28;20128;-77
2022/06/05 01:12:42;;;;;;;8.70;5.68;;;;;;;14.39;77.89;101868.47;5079519;28;20073;-77
2022/06/05 01:15:49;;;;;;;6.45;5.60;;;;;;;14.42;77.84;101901.75;5061562;28;20312;-77
2022/06/05 01:18:30;;;;;;;5.38;4.43;;;;;;;14.52;77.86;101945.28;5079144;28;20032;-77
2022/06/05 01:20:55;;;;;;;4.82;3.97;;;;;;;14.60;77.68;101942.34;5078213;28;20100;-77
2022/06/05 01:23:36;;;;;;;5.30;4.83;;;;;;;14.68;77.40;101928.84;5079733;28;20059;-77
2022/06/05 01:26:21;;;;;;;5.82;5.18;;;;;;;14.69;77.16;101939.34;5079872;28;20479;-77
2022/06/05 01:28:56;;;;;;;7.68;3.95;;;;;;;14.75;76.98;101952.31;5080294;28;20020;-77
2022/06/05 01:31:32;;;;;;;4.57;4.18;;;;;;;14.81;76.84;101945.03;5061504;28;20020;-77
2022/06/05 01:34:13;;;;;;;5.50;5.00;;;;;;;14.83;76.65;101927.41;5079927;28;20020;-77
2022/06/05 01:36:50;;;;;;;7.65;4.78;;;;;;;14.82;76.43;101946.78;5080218;28;20091;-77
2022/06/05 01:39:28;;;;;;;7.63;4.15;;;;;;;14.86;76.47;101949.22;5079257;28;20041;-77
2022/06/05 01:41:58;;;;;;;5.23;4.80;;;;;;;14.88;76.36;101928.94;5079407;28;20271;-77
2022/06/05 01:44:32;;;;;;;7.25;4.57;;;;;;;14.90;76.31;101918.31;5079984;28;20370;-77
2022/06/05 01:47:01;;;;;;;4.80;4.32;;;;;;;14.91;76.40;101918.22;5061573;28;20232;-77
2022/06/05 01:49:33;;;;;;;4.03;3.72;;;;;;;14.94;76.03;101925.16;5079511;28;20100;-77
2022/06/05 01:52:07;;;;;;;7.78;4.00;;;;;;;14.95;76.00;101917.19;5061765;28;20028;-77
2022/06/05 01:54:39;;;;;;;4.38;3.97;;;;;;;14.96;75.79;101929.44;5079280;28;20452;-77
2022/06/05 01:57:08;;;;;;;4.97;4.15;;;;;;;15.00;76.03;101916.13;5079693;28;20064;-77
2022/06/05 01:59:43;;;;;;;6.50;5.25;;;;;;;14.91;76.87;101891.00;5079484;28;20028;-77
2022/06/05 02:02:14;;;;;;;9.02;5.80;;;;;;;14.86;76.83;101880.66;5079467;28;20375;-78
2022/06/05 02:04:49;;;;;;;9.25;5.88;;;;;;;14.84;77.70;101893.03;5079244;28;20032;-78
2022/06/05 02:07:23;;;;;;;7.90;6.30;;;;;;;14.77;78.73;101870.47;5079487;28;20030;-78
2022/06/05 02:10:14;;;;;;;6.97;5.53;;;;;;;14.73;78.84;101866.25;5061382;28;20237;-78
2022/06/05 02:12:40;;;;;;;6.50;5.38;;;;;;;14.70;79.26;101869.88;5061692;28;20028;-77
2022/06/05 02:15:07;;;;;;;6.28;5.68;;;;;;;14.72;79.16;101873.31;5079278;28;20036;-77
2022/06/05 02:17:33;;;;;;;8.52;5.88;;;;;;;14.72;79.31;101862.78;5078878;28;20044;-77
2022/06/05 02:20:00;;;;;;;8.50;5.57;;;;;;;14.70;79.67;101856.72;5061665;28;20343;-78
2022/06/05 02:22:43;;;;;;;7.95;5.80;;;;;;;14.69;80.41;101847.06;5067861;28;20332;-78
2022/06/05 02:25:09;;;;;;;13.05;7.22;;;;;;;14.63;81.10;101852.63;5085746;28;20077;-78
2022/06/05 02:27:35;;;;;;;8.73;6.60;;;;;;;14.59;81.60;101851.03;5067856;28;20332;-78
2022/06/05 02:30:02;;;;;;;11.95;7.10;;;;;;;14.54;82.47;101843.28;5067884;28;20089;-78
2022/06/05 02:32:37;;;;;;;12.95;7.60;;;;;;;14.47;82.43;101833.91;5085528;28;20047;-78
2022/06/05 02:35:16;;;;;;;12.20;7.25;;;;;;;14.42;83.10;101824.47;5067782;28;20240;-78
2022/06/05 02:38:13;;;;;;;11.80;6.82;;;;;;;14.38;83.09;101805.28;5085526;28;20220;-78
2022/06/05 02:40:47;;;;;;;11.98;7.40;;;;;;;14.32;83.65;101795.88;5067567;28;20028;-78
2022/06/05 02:43:33;;;;;;;12.23;7.22;;;;;;;14.24;84.09;101792.66;5085627;28;20347;-78
2022/06/05 02:46:20;;;;;;;11.25;7.85;;;;;;;14.20;84.28;101772.66;5085796;28;20020;-78
2022/06/05 02:48:54;;;;;;;10.27;7.82;;;;;;;14.06;85.08;101767.09;5085628;28;20039;-78
2022/06/05 02:51:30;;;;;;;9.70;7.22;;;;;;;14.02;85.45;101766.34;5085620;28;20059;-78
2022/06/05 02:53:57;;;;;;;11.57;8.05;;;;;;;13.99;85.82;101767.34;5067876;28;20287;-78
2022/06/05 02:56:26;;;;;;;16.17;8.52;;;;;;;14.01;85.85;101756.75;5066897;28;20142;-78
2022/06/05 02:58:54;;;;;;;11.38;7.88;;;;;;;13.94;86.21;101753.50;5086833;28;20059;-76
2022/06/05 03:04:07;;;;;;;12.18;8.70;;;;;;;13.90;86.14;101719.44;5085432;28;20097;-78
2022/06/05 03:06:33;;;;;;;;;;;;;;;13.82;86.62;101707.47;5085802;28;20032;-78
2022/06/05 03:08:58;;;;;;;11.35;8.40;;;;;;;13.71;87.07;101693.00;5085578;28;19950;-78
2022/06/05 03:11:23;;;;;;;11.55;8.75;;;;;;;13.67;87.42;101689.63;5085550;28;20047;-78
2022/06/05 03:13:49;;;;;;;14.98;8.60;;;;;;;13.59;87.68;101694.38;5067546;28;20040;-78
2022/06/05 03:16:14;;;;;;;17.45;9.30;;;;;;;13.51;88.28;101686.75;5033846;28;20335;-78
2022/06/05 03:18:40;;;;;;;13.40;8.32;;;;;;;13.52;87.94;101691.13;5085163;28;20041;-78
2022/06/05 03:21:05;;;;;;;14.35;8.93;;;;;;;13.49;88.30;101682.47;5067165;28;20036;-78
2022/06/05 03:23:32;;;;;;;15.10;9.27;;;;;;;13.46;88.08;101678.19;5050647;28;20040;-78
2022/06/05 03:25:58;;;;;;;13.43;8.57;;;;;;;13.38;88.29;101675.84;5085630;28;20040;-78
2022/06/05 03:28:24;;;;;;;15.40;8.98;;;;;;;13.33;88.23;101658.53;5085146;28;20374;-78
2022/06/05 03:30:49;;;;;;;14.40;9.30;;;;;;;13.33;88.39;101662.00;5067662;28;20032;-78
2022/06/05 03:33:15;;;;;;;11.07;9.40;;;;;;;13.27;88.99;101658.75;5063434;28;20043;-78
2022/06/05 03:35:43;;;;;;;15.23;9.38;;;;;;;13.18;89.62;101659.97;5081991;28;20040;-79
2022/06/05 03:38:09;;;;;;;14.80;9.70;;;;;;;13.11;89.70;101647.97;5081854;28;20058;-78
2022/06/05 03:40:38;;;;;;;16.38;9.07;;;;;;;13.09;89.81;101649.81;5063958;28;20037;-78
2022/06/05 03:43:04;;;;;;;13.20;9.65;;;;;;;13.04;90.28;101647.31;5082040;28;20038;-78
2022/06/05 03:45:29;;;;;;;14.98;9.57;;;;;;;13.04;90.27;101648.22;5081604;28;20044;-78
2022/06/05 03:47:54;;;;;;;15.93;9.40;;;;;;;13.02;90.16;101647.41;5064176;28;20047;-78
2022/06/05 03:50:20;;;;;;;15.60;9.95;;;;;;;13.01;90.20;101647.47;5081206;28;20262;-79
2022/06/05 03:52:45;;;;;;;15.98;9.85;;;;;;;12.99;90.55;101660.66;5081781;28;20296;-78
2022/06/05 03:55:15;;;;;;;14.45;9.68;;;;;;;13.02;90.14;101657.06;5063484;28;20332;-78
2022/06/05 03:57:41;;;;;;;19.38;9.63;;;;;;;13.02;90.39;101646.53;5081578;28;20070;-78
2022/06/05 04:00:09;;;;;;;16.65;9.73;;;;;;;12.97;90.74;101643.22;5046800;28;20025;-78
2022/06/05 04:02:35;;;;;;;14.85;10.18;;;;;;;12.93;90.98;101639.84;5064128;28;20036;-78
2022/06/05 04:05:02;;;;;;;18.15;9.77;;;;;;;12.91;90.82;101633.78;5081512;28;20037;-78
2022/06/05 04:07:27;;;;;;;11.55;9.50;;;;;;;12.91;90.82;101627.69;5081171;28;20052;-78
2022/06/05 04:09:53;;;;;;;13.13;10.10;;;;;;;12.86;91.08;101630.47;5042756;28;20340;-78
2022/06/05 04:12:18;;;;;;;19.17;10.00;;;;;;;12.84;90.96;101627.94;5041909;28;20121;-78
2022/06/05 04:14:43;;;;;;;14.35;9.55;;;;;;;12.86;91.40;101633.09;5059118;28;20384;-78
2022/06/05 04:17:10;;;;;;;17.58;9.85;;;;;;;12.85;90.87;101644.56;5078770;28;20040;-78
2022/06/05 04:19:36;;;;;;;14.48;9.80;;;;;;;12.85;91.06;101640.16;5079636;28;20371;-79
2022/06/05 04:22:01;;;;;;;15.30;10.38;;;;;;;12.90;91.29;101645.25;5078843;28;20036;-79
2022/06/05 04:24:27;;;;;;;20.17;10.43;;;;;;;12.90;91.01;101645.25;5061895;28;20385;-79
2022/06/05 04:26:52;;;;;;;12.48;10.40;;;;;;;12.90;91.21;101644.38;5057605;28;20036;-78
2022/06/05 04:29:18;;;;;;;11.82;10.20;;;;;;;12.89;90.81;101634.78;5040589;28;20029;-78
2022/06/05 04:31:45;;;;;;;16.65;10.38;;;;;;;12.83;90.68;101634.09;5059665;28;20052;-78
2022/06/05 04:34:14;;;;;;;16.42;10.85;;;;;;;12.82;90.98;101635.03;5059270;28;20032;-78
2022/06/05 04:36:39;;;;;;;14.40;10.18;;;;;;;12.81;90.91;101642.97;5041238;28;20060;-78
2022/06/05 04:39:05;;;;;;;18.15;10.73;;;;;;;12.82;90.80;101629.75;5040890;28;20033;-79
2022/06/05 04:41:31;;;;;;;17.00;11.10;;;;;;;12.78;91.01;101636.03;5059398;28;20340;-78
2022/06/05 04:43:57;;;;;;;15.13;10.32;;;;;;;12.79;90.79;101634.28;5058326;28;20039;-78
2022/06/05 04:46:25;;;;;;;11.68;10.52;;;;;;;12.78;90.73;101625.50;5041269;28;20236;-78
2022/06/05 04:48:50;;;;;;;14.40;10.40;;;;;;;12.80;90.87;101631.56;5041835;28;20032;-78
2022/06/05 04:51:18;;;;;;;21.10;10.50;;;;;;;12.82;91.13;101635.03;5040617;28;20044;-78
2022/06/05 04:53:45;;;;;;;19.27;11.40;;;;;;;12.81;90.94;101627.19;5059081;28;20031;-78
2022/06/05 04:56:16;;;;;;;12.73;10.30;;;;;;;12.80;90.89;101623.69;5059039;28;20079;-78
2022/06/05 04:58:41;;;;;;;12.43;10.57;;;;;;;12.84;90.93;101624.41;5041492;28;20052;-78
2022/06/05 05:01:19;;;;;;;13.07;10.68;;;;;;;12.85;91.08;101621.75;5059056;28;20108;-78
2022/06/05 05:03:46;;;;;;;16.50;11.20;;;;;;;12.89;91.05;101625.13;5058619;28;20047;-78
2022/06/05 05:06:12;;;;;;;17.15;11.27;;;;;;;12.89;90.84;101632.16;5059124;28;20547;-78
2022/06/05 05:08:38;;;;;;;16.40;10.95;;;;;;;12.86;90.74;101626.09;5058858;28;20044;-78
2022/06/05 05:11:04;;;;;;;17.42;10.93;;;;;;;12.90;90.76;101620.69;5058775;28;20202;-78
2022/06/05 05:13:30;;;;;;;17.35;11.23;;;;;;;12.87;90.80;101616.44;5053417;28;20047;-78
2022/06/05 05:15:55;;;;;;;16.48;10.90;;;;;;;12.89;91.06;101619.84;5060696;28;20386;-78
2022/06/05 05:18:22;;;;;;;14.85;10.85;;;;;;;12.92;90.88;101618.91;5077241;28;20048;-78
2022/06/05 05:20:48;;;;;;;15.25;11.07;;;;;;;12.93;91.31;101618.81;5062628;28;20117;-78
2022/06/05 05:23:13;;;;;;;17.88;11.30;;;;;;;12.93;90.90;101599.56;5048930;28;20103;-78
2022/06/05 05:25:39;;;;;;;16.42;11.50;;;;;;;12.89;90.95;101601.44;5072283;28;20070;-78
2022/06/05 05:28:06;;;;;;;15.38;11.32;;;;;;;12.93;91.18;101602.19;5074103;28;20036;-78
2022/06/05 05:30:33;;;;;;;15.70;10.98;;;;;;;12.96;91.05;101604.72;5057309;28;20118;-78
2022/06/05 05:32:58;;;;;;;17.33;11.38;;;;;;;12.97;91.49;101612.56;5057396;28;20071;-78
2022/06/05 05:35:24;;;;;;;13.85;11.23;;;;;;;12.99;91.14;101605.44;5059828;28;20029;-78
2022/06/05 05:37:50;;;;;;;16.35;11.23;;;;;;;12.97;91.13;101611.66;5060130;28;20127;-78
2022/06/05 05:42:59;;;;;;;16.95;11.77;;;;;;;13.03;91.41;101617.56;5048223;28;20224;-78
2022/06/05 05:45:24;;;;;;;15.02;11.05;;;;;;;13.06;91.29;101614.81;5078095;28;20052;-78
2022/06/05 05:47:50;;;;;;;15.38;11.30;;;;;;;13.05;91.08;101610.47;5078085;28;20123;-78
2022/06/05 05:50:16;;;;;;;16.25;11.35;;;;;;;13.05;91.03;101610.47;5059576;28;20048;-78
2022/06/05 05:52:43;;;;;;;19.38;11.60;;;;;;;13.08;90.99;101614.75;5078435;28;20256;-78
2022/06/05 05:55:14;;;;;;;16.42;11.95;;;;;;;13.08;90.77;101609.50;5077347;28;20052;-78
2022/06/05 05:57:40;;;;;;;16.77;12.02;;;;;;;13.09;90.89;101613.84;5078028;28;20040;-78
2022/06/05 06:00:09;;;;;;;19.05;12.18;;;;;;;13.07;91.00;101611.25;5077998;28;20040;-78
2022/06/05 06:02:35;;;;;;;15.82;12.20;;;;;;;13.06;90.50;101611.31;5077803;28;20071;-78
2022/06/05 06:05:02;;;;;;;16.80;11.63;;;;;;;13.05;90.96;101609.63;5077896;28;20240;-78
2022/06/05 06:07:27;;;;;;;19.17;12.30;;;;;;;13.04;91.11;101611.41;5077452;28;20032;-78
2022/06/05 06:09:52;;;;;;;16.42;11.23;;;;;;;13.05;91.03;101604.34;5057828;28;20188;-78
2022/06/05 06:12:18;;;;;;;14.18;10.65;;;;;;;13.05;91.26;101605.19;5045961;28;20041;-78
2022/06/05 06:14:43;;;;;;;14.80;11.13;;;;;;;13.10;91.17;101604.16;5042374;28;20078;-78
2022/06/05 06:17:09;;;;;;;16.30;11.50;;;;;;;13.12;91.63;101603.19;5059231;28;20472;-78
2022/06/05 06:19:35;;;;;;;17.15;12.65;;;;;;;13.09;91.58;101611.19;5078222;28;20052;-78
2022/06/05 06:22:00;;;;;;;16.95;11.95;;;;;;;13.11;91.51;101614.63;5075957;28;20037;-78
2022/06/05 06:24:25;;;;;;;16.85;11.43;;;;;;;13.14;91.39;101606.63;5042894;28;20042;-78
2022/06/05 06:26:51;;;;;;;19.42;12.13;;;;;;;13.13;90.92;101606.69;5070262;28;20027;-78
2022/06/05 06:29:16;;;;;;;16.17;12.05;;;;;;;13.14;90.97;101606.63;5073351;28;20340;-78
2022/06/05 06:31:42;;;;;;;16.10;12.48;;;;;;;13.16;91.32;101606.56;5076908;28;20146;-78
2022/06/05 06:34:08;;;;;;;18.30;12.05;;;;;;;13.17;90.83;101603.88;5072135;28;20029;-78
2022/06/05 06:36:33;;;;;;;16.88;11.57;;;;;;;13.17;91.04;101611.78;5037942;28;20364;-78
2022/06/05 06:38:59;;;;;;;20.63;13.00;;;;;;;13.18;90.94;101605.56;5073677;28;20131;-78
2022/06/05 06:41:25;;;;;;;15.48;12.07;;;;;;;13.19;90.89;101607.31;5074984;28;20047;-78
2022/06/05 06:43:51;;;;;;;15.38;12.05;;;;;;;13.20;90.81;101593.22;5078901;28;20275;-78
2022/06/05 06:46:18;;;;;;;14.60;12.02;;;;;;;13.22;90.81;101587.91;5077032;28;20380;-78
2022/06/05 06:48:44;;;;;;;16.55;12.02;;;;;;;13.23;90.78;101581.75;5076034;28;20033;-78
2022/06/05 06:51:10;;;;;;;15.05;12.13;;;;;;;13.23;90.88;101579.97;5072279;28;20056;-78
2022/06/05 06:53:37;;;;;;;15.15;12.02;;;;;;;13.26;90.78;101576.34;5076578;28;20059;-78
2022/06/05 06:56:12;;;;;;;16.77;12.15;;;;;;;13.25;91.20;101570.22;5079053;28;20039;-78
2022/06/05 06:58:38;;;;;;;16.50;12.10;;;;;;;13.30;90.77;101571.81;5082476;28;20036;-78
2022/06/05 07:01:04;;;;;;;16.13;12.23;;;;;;;13.31;91.05;101563.03;5080327;28;20254;-78
2022/06/05 07:03:30;;;;;;;19.80;12.10;;;;;;;13.33;91.20;101559.41;5076016;28;20056;-78
2022/06/05 07:05:56;;;;;;;17.52;12.35;;;;;;;13.36;91.12;101550.56;5091625;28;20243;-78
2022/06/05 07:08:21;;;;;;;19.15;12.30;;;;;;;13.37;91.03;101550.50;5079748;28;20054;-78
2022/06/05 07:10:47;;;;;;;19.25;12.65;;;;;;;13.39;91.05;101539.94;5070641;28;20039;-78
2022/06/05 07:13:12;;;;;;;18.45;12.32;;;;;;;13.43;90.88;101544.97;5049763;28;20039;-78
2022/06/05 07:15:38;;;;;;;18.73;12.15;;;;;;;13.47;90.91;101540.44;5070384;28;20035;-78
2022/06/05 07:18:05;;;;;;;16.60;12.57;;;;;;;13.51;91.13;101536.75;5068608;28;20135;-78
2022/06/05 07:20:38;;;;;;;17.88;12.88;;;;;;;13.54;90.68;101536.63;5092180;28;20103;-78
2022/06/05 07:23:04;;;;;;;15.50;12.25;;;;;;;13.56;90.38;101531.31;5082420;28;20043;-78
2022/06/05 07:25:32;;;;;;;15.38;12.15;;;;;;;13.58;90.10;101522.44;5065664;28;20099;-78
2022/06/05 07:27:57;;;;;;;14.80;12.02;;;;;;;13.61;90.52;101524.09;5076067;28;20086;-78
2022/06/05 07:30:23;;;;;;;17.52;11.68;;;;;;;13.65;90.10;101514.28;5079986;28;20091;-78
2022/06/05 07:32:50;;;;;;;17.52;12.43;;;;;;;13.69;90.24;101507.97;5079949;28;20033;-78
2022/06/05 07:35:16;;;;;;;16.40;12.55;;;;;;;13.74;90.56;101514.75;5061901;28;20036;-78
2022/06/05 07:37:41;;;;;;;17.67;12.13;;;;;;;13.78;90.74;101511.03;5063392;28;20048;-78
2022/06/05 07:40:08;;;;;;;17.80;12.82;;;;;;;13.83;90.29;101508.22;5069772;28;20228;-78
2022/06/05 07:42:41;;;;;;;16.65;12.25;;;;;;;13.88;90.44;101508.88;5064401;28;20035;-78
2022/06/05 07:45:09;;;;;;;17.75;12.45;;;;;;;13.93;90.38;101506.03;5039726;28;20036;-78
2022/06/05 07:47:35;;;;;;;20.20;13.23;;;;;;;13.97;89.95;101505.84;5093706;28;20103;-78
2022/06/05 07:50:00;;;;;;;15.20;12.40;;;;;;;14.02;89.56;101503.88;5067226;28;20317;-78
2022/06/05 07:55:11;;;;;;;15.45;12.20;;;;;;;14.14;89.78;101489.28;5078052;28;20044;-78
2022/06/05 07:57:36;;;;;;;21.30;12.45;;;;;;;14.19;89.32;101484.66;5061376;28;20040;-78
2022/06/05 08:00:05;;;;;;;16.98;12.82;;;;;;;14.25;88.91;101474.78;5061070;28;20166;-78
2022/06/05 08:02:31;;;;;;;14.57;12.02;;;;;;;14.29;88.72;101476.34;5061313;28;20215;-78
2022/06/05 08:04:56;;;;;;;19.88;13.30;;;;;;;14.34;88.78;101462.00;5095530;28;20347;-78
2022/06/05 08:07:25;;;;;;;16.45;11.98;;;;;;;14.42;89.18;101460.81;5071164;28;20033;-78
2022/06/05 08:09:52;;;;;;;17.52;12.38;;;;;;;14.49;89.29;101462.22;5078759;28;20189;-78
2022/06/05 08:12:20;;;;;;;14.50;12.32;;;;;;;14.57;88.97;101465.34;5065186;28;20086;-78
2022/06/05 08:14:48;;;;;;;15.85;11.93;;;;;;;14.65;87.87;101465.03;5095763;28;20108;-78
2022/06/05 08:17:16;;;;;;;;;;;;;;;14.75;88.79;101466.28;5056588;28;20031;-77
2022/06/05 08:19:42;;;;;;;16.02;13.18;;;;;;;14.85;88.46;101469.34;5069845;28;19912;-78
2022/06/05 08:22:10;;;;;;;13.15;11.75;;;;;;;14.94;88.69;101471.53;5061578;28;20078;-78
2022/06/05 08:24:36;;;;;;;18.17;12.98;;;;;;;15.07;88.58;101472.63;5085086;28;20198;-78
2022/06/05 08:27:02;;;;;;;13.60;12.25;;;;;;;15.15;88.20;101473.13;5059005;28;20032;-78
2022/06/05 08:29:27;;;;;;;15.55;12.65;;;;;;;15.27;87.83;101465.50;5060352;28;20048;-78
2022/06/05 08:31:53;;;;;;;19.35;13.18;;;;;;;15.38;88.16;101471.09;5075038;28;20375;-78
2022/06/05 08:34:19;;;;;;;17.92;12.23;;;;;;;15.45;87.39;101469.00;5051877;28;20177;-78
2022/06/05 08:36:44;;;;;;;15.35;12.85;;;;;;;15.55;87.53;101471.09;5063425;28;20164;-78
2022/06/05 08:42:32;;;;;;;20.73;13.30;;;;;;;15.72;86.37;101467.56;5079029;28;20090;-78
2022/06/05 08:45:22;;;;;;;14.60;12.77;;;;;;;15.81;86.51;101470.66;5059660;28;20235;-78
2022/06/05 08:47:55;;;;;;;15.63;12.45;;;;;;;15.91;86.06;101464.81;5081847;28;20067;-78
2022/06/05 08:50:46;;;;;;;14.68;12.18;;;;;;;15.98;84.27;101465.38;5058020;28;20375;-78
2022/06/05 08:53:34;;;;;;;13.32;12.02;;;;;;;16.07;84.43;101466.66;5066965;28;20026;-78
2022/06/05 08:55:59;;;;;;;16.60;12.20;;;;;;;16.12;84.47;101469.91;5060611;28;20036;-78
2022/06/05 08:58:47;;;;;;;12.98;11.38;;;;;;;16.19;84.03;101476.56;5070644;28;20040;-78
2022/06/05 09:01:54;;;;;;;16.27;12.57;;;;;;;16.23;84.62;101491.31;5084430;28;20060;-78
2022/06/05 09:04:40;;;;;;;15.60;11.40;;;;;;;16.28;84.45;101499.88;5077690;28;20057;-78
2022/06/05 09:07:12;;;;;;;13.93;10.70;;;;;;;16.31;84.54;101504.13;5078235;28;20172;-78
2022/06/05 09:09:49;;;;;;;12.57;11.32;;;;;;;16.33;84.26;101498.75;5078261;28;20086;-78
2022/06/05 09:12:23;;;;;;;13.20;11.82;;;;;;;16.35;84.63;101488.94;5082930;28;20108;-78
2022/06/05 09:15:16;;;;;;;14.95;11.88;;;;;;;16.40;84.42;101482.47;5082135;28;20351;-78
2022/06/05 09:17:51;;;;;;;13.52;12.13;;;;;;;16.44;83.22;101493.72;5081888;28;20052;-78
2022/06/05 09:20:18;;;;;;;19.23;12.02;;;;;;;16.47;82.76;101493.56;5078749;28;20039;-78
2022/06/05 09:22:59;;;;;;;14.95;12.38;;;;;;;16.50;82.38;101481.03;5078387;28;20036;-78
2022/06/05 09:25:39;;;;;;;13.18;11.80;;;;;;;16.53;82.78;101477.34;5080566;28;20095;-78
2022/06/05 09:28:20;;;;;;;14.60;12.88;;;;;;;16.56;83.24;101477.19;5081399;28;20043;-78
2022/06/05 09:31:07;;;;;;;15.52;12.90;;;;;;;16.58;82.73;101485.03;5078002;28;20036;-78
2022/06/05 09:33:36;;;;;;;15.38;12.40;;;;;;;16.62;83.87;101487.41;5085059;28;20043;-78
2022/06/05 09:36:08;;;;;;;18.17;13.70;;;;;;;16.63;83.90;101475.06;5077962;28;20390;-78
2022/06/05 09:38:40;;;;;;;15.57;13.13;;;;;;;16.65;83.78;101475.81;5077273;28;20040;-78
2022/06/05 09:41:12;;;;;;;13.50;12.00;;;;;;;16.66;83.38;101481.03;5078249;28;20043;-78
2022/06/05 09:43:52;;;;;;;15.02;11.85;;;;;;;16.67;83.79;101482.72;5064198;28;20030;-78
2022/06/05 09:46:26;;;;;;;16.80;13.57;;;;;;;16.69;84.19;101469.41;5059447;28;20205;-78
2022/06/05 09:49:02;;;;;;;17.38;11.75;;;;;;;16.71;83.74;101462.25;5064965;28;20020;-78
2022/06/05 09:51:28;;;;;;;13.93;12.32;;;;;;;16.72;83.66;101469.25;5059843;28;20036;-78
2022/06/05 09:53:59;;;;;;;19.33;13.57;;;;;;;16.74;83.31;101475.31;5045906;28;20395;-78
2022/06/05 09:56:31;;;;;;;14.80;12.90;;;;;;;16.73;83.04;101463.00;5060024;28;20410;-78
2022/06/05 09:59:05;;;;;;;17.35;13.90;;;;;;;16.73;82.71;101447.13;5086610;28;20028;-78
2022/06/05 10:01:35;;;;;;;17.02;13.25;;;;;;;16.75;83.11;101449.72;5081851;28;20040;-78
2022/06/05 10:04:05;;;;;;;17.83;13.85;;;;;;;16.76;83.32;101460.19;5079048;28;20044;-78
2022/06/05 10:06:45;;;;;;;20.60;14.00;;;;;;;16.78;83.82;101453.03;5095312;28;20062;-78
2022/06/05 10:09:15;;;;;;;15.10;13.55;;;;;;;16.80;83.88;101451.16;5082582;28;20347;-78
2022/06/05 10:11:59;;;;;;;17.98;13.95;;;;;;;16.81;83.38;101444.94;5085884;28;20413;-78
2022/06/05 10:14:36;;;;;;;15.73;14.23;;;;;;;16.84;83.37;101451.84;5092663;28;20244;-78
2022/06/05 10:17:05;;;;;;;19.90;14.65;;;;;;;16.87;83.42;101449.88;5077222;28;20051;-78
2022/06/05 10:19:58;;;;;;;15.50;13.07;;;;;;;16.89;83.26;101441.88;5077423;28;20094;-78
2022/06/05 10:22:26;;;;;;;16.80;14.07;;;;;;;16.88;82.49;101434.84;5093034;28;20526;-78
2022/06/05 10:25:16;;;;;;;15.80;14.02;;;;;;;16.88;82.42;101421.63;5077442;28;20037;-78
2022/06/05 10:27:55;;;;;;;15.35;13.40;;;;;;;16.90;82.35;101425.06;5079042;28;20070;-78
2022/06/05 10:30:30;;;;;;;22.50;14.32;;;;;;;16.92;82.99;101424.94;5075402;28;20045;-78
2022/06/05 10:33:06;;;;;;;16.23;13.25;;;;;;;16.94;83.11;101423.09;5059866;28;20025;-78
2022/06/05 10:36:08;;;;;;;15.27;13.57;;;;;;;16.97;83.58;101423.78;5079780;28;20123;-78
2022/06/05 10:39:00;;;;;;;16.55;13.15;;;;;;;16.97;83.28;101413.19;5080773;28;20051;-78
2022/06/05 10:41:41;;;;;;;24.55;14.60;;;;;;;16.97;82.59;101407.91;5059820;28;20311;-78
2022/06/05 10:44:26;;;;;;;19.42;15.27;;;;;;;16.98;83.20;101408.75;5085137;28;20331;-78
2022/06/05 10:47:17;;;;;;;17.90;14.40;;;;;;;16.97;83.08;101407.91;5083160;28;20251;-78
2022/06/05 10:49:49;;;;;;;20.27;14.05;;;;;;;16.98;83.42;101414.03;5080928;28;20036;-78
2022/06/05 10:52:26;;;;;;;17.20;13.93;;;;;;;16.98;83.77;101406.09;5064169;28;20038;-78
2022/06/05 10:55:15;;;;;;;17.48;13.48;;;;;;;17.01;83.91;101411.22;5083277;28;20037;-78
2022/06/05 10:57:50;;;;;;;18.13;14.90;;;;;;;17.02;83.56;101404.97;5082832;28;20029;-78
2022/06/05 11:00:17;;;;;;;25.48;14.93;;;;;;;17.02;83.76;101408.44;5079881;28;20312;-78
2022/06/05 11:02:45;;;;;;;16.98;14.40;;;;;;;17.03;83.43;101414.63;5083467;28;20042;-78
2022/06/05 11:05:29;;;;;;;15.75;13.85;;;;;;;17.04;83.41;101405.72;5084309;28;20028;-78
2022/06/05 11:08:14;;;;;;;19.15;14.13;;;;;;;17.05;83.60;101407.44;5095591;28;20244;-78
2022/06/05 11:13:49;;;;;;;15.75;13.48;;;;;;;17.05;83.28;101403.00;5093278;28;20374;-78
2022/06/05 11:16:47;;;;;;;18.70;14.52;;;;;;;17.05;83.44;101394.22;5089407;28;20036;-78
2022/06/05 11:19:46;;;;;;;16.83;14.07;;;;;;;17.04;83.59;101393.34;5068673;28;20047;-78
2022/06/05 11:22:16;;;;;;;15.63;13.82;;;;;;;17.03;83.59;101383.72;5081201;28;20040;-78
2022/06/05 11:24:45;;;;;;;19.27;13.90;;;;;;;17.04;83.67;101393.34;5084179;28;20307;-78
2022/06/05 11:27:33;;;;;;;15.38;13.15;;;;;;;17.05;83.34;101388.91;5083341;28;20099;-78
2022/06/05 11:30:08;;;;;;;17.33;13.32;;;;;;;17.04;83.35;101389.84;5082918;28;20040;-78
2022/06/05 11:32:47;;;;;;;15.00;13.25;;;;;;;17.05;83.40;101388.91;5083348;28;20103;-78
2022/06/05 11:35:54;;;;;;;14.43;12.02;;;;;;;17.07;83.62;101385.22;5063265;28;20032;-78
2022/06/05 11:38:28;;;;;;;18.23;13.37;;;;;;;17.06;83.51;101388.81;5066474;28;20394;-78
2022/06/05 11:41:04;;;;;;;15.90;12.77;;;;;;;17.05;83.17;101389.75;5079590;28;20222;-78
2022/06/05 11:43:34;;;;;;;16.38;12.93;;;;;;;17.06;83.01;101395.91;5086186;28;20356;-78
2022/06/05 11:46:02;;;;;;;20.42;14.18;;;;;;;17.05;83.02;101387.13;5081307;28;20036;-78
2022/06/05 11:48:41;;;;;;;17.55;13.85;;;;;;;17.02;83.15;101389.94;5064234;28;20025;-78
2022/06/05 11:51:26;;;;;;;20.13;13.82;;;;;;;17.01;83.80;101387.41;5093936;28;20032;-78